Data for 10/15/2007

Time Sea-Level Adjusted Pressure Absolute Pressure Temperature Relative Humidity Dew Point   
(mb) (inHg) (mb) (inHg) (C) (F) (%) (C) (F)
00:05 1017 30.03 846 24.98 7.8 46 52 -1.4 29.5
00:10 1017 30.03 846 24.98 7.8 46 55 -0.7 30.8
00:15 1017 30.03 846 24.98 8.1 46.6 54 -0.6 30.9
00:20 1017 30.03 846 24.98 8.1 46.5 54 -0.8 30.6
00:25 1017 30.03 846 24.98 7.9 46.2 55 -0.5 31.1
00:30 1017 30.03 846 24.98 7.6 45.7 56 -0.5 31
00:35 1017 30.03 846 24.98 7.5 45.4 57 -0.4 31.2
00:40 1017 30.03 846 24.98 7.4 45.3 58 -0.4 31.3
00:45 1017 30.03 846 24.98 7.4 45.3 57 -0.4 31.2
00:50 1017 30.03 846 24.98 7.3 45.2 58 -0.4 31.2
00:55 1017 30.03 846 24.98 7.2 45 58 -0.5 31.1
01:00 1017 30.03 846 24.98 7.2 45 58 -0.5 31.1
01:05 1017 30.03 846 24.98 7.2 44.9 58 -0.4 31.2
01:10 1017 30.03 846 24.98 7.1 44.8 59 -0.4 31.3
01:15 1017 30.03 846 24.98 7.1 44.8 59 -0.4 31.3
01:20 1017 30.03 846 24.98 7.1 44.8 59 -0.3 31.4
01:25 1017 30.03 846 24.98 7.1 44.7 59 -0.5 31.1
01:30 1017 30.03 846 24.98 7.1 44.8 58 -0.5 31
01:35 1017 30.03 846 24.98 7 44.5 59 -0.4 31.3
01:40 1017 30.03 846 24.98 6.7 44.1 59 -0.8 30.6
01:45 1017 30.03 846 24.98 6.8 44.2 59 -0.8 30.6
01:50 1017 30.03 846 24.98 6.6 43.8 60 -0.7 30.7
01:55 1017 30.03 846 24.98 6.7 44.1 58 -1 30.1
02:00 1017 30.03 846 24.98 6.7 44 58 -1 30.2
02:05 1017 30.03 846 24.98 6.8 44.2 58 -0.9 30.4
02:10 1017 30.03 846 24.98 6.7 44.1 58 -0.8 30.5
02:15 1017 30.03 846 24.98 6.5 43.8 59 -0.9 30.4
02:20 1017 30.03 846 24.98 6.3 43.4 59 -1.1 30
02:25 1017 30.03 846 24.98 6.4 43.5 59 -1.1 30
02:30 1017 30.03 846 24.98 6.2 43.2 59 -1.2 29.9
02:35 1017 30.03 846 24.98 5.9 42.6 59 -1.5 29.3
02:40 1017 30.03 846 24.98 5.8 42.4 60 -1.5 29.4
02:45 1017 30.03 846 24.98 5.6 42.1 60 -1.6 29.1
02:50 1017 30.03 846 24.98 5.7 42.2 58 -1.8 28.7
02:55 1017 30.03 846 24.98 6 42.9 57 -1.9 28.5
03:00 1017 30.03 846 24.98 6.2 43.1 55 -2.1 28.3
03:05 1017 30.03 846 24.98 6.2 43.1 56 -1.9 28.7
03:10 1017 30.03 846 24.98 5.6 42 58 -2 28.4
03:15 1017 30.03 846 24.98 5.4 41.8 58 -2 28.3
03:20 1017 30.03 846 24.98 5.5 41.9 59 -2 28.4
03:25 1017 30.03 846 24.98 5.5 41.9 59 -2 28.5
03:30 1017 30.03 846 24.98 5.8 42.4 58 -1.9 28.7
03:35 1017 30.03 846 24.98 5.6 42 58 -2.1 28.2
03:40 1017 30.03 846 24.98 5.7 42.2 56 -2.3 27.8
03:45 1017 30.03 846 24.98 6 42.9 58 -1.6 29.2
03:50 1017 30.03 846 24.98 6 42.7 56 -2 28.4
03:55 1017 30.03 846 24.98 5.7 42.2 57 -2.1 28.2
04:00 1017 30.03 846 24.98 5.1 41.2 61 -1.9 28.7
04:05 1017 30.03 846 24.98 5.1 41.2 61 -1.8 28.8
04:10 1017 30.03 846 24.98 5.3 41.6 61 -1.6 29
04:15 1017 30.03 846 24.98 5.6 42.1 60 -1.6 29.2
04:20 1017 30.03 846 24.98 5.5 41.9 61 -1.5 29.4
04:25 1017 30.03 846 24.98 5.3 41.5 61 -1.6 29.1
04:30 1017 30.03 846 24.98 5.1 41.2 61 -1.8 28.8
04:35 1017 30.03 846 24.98 4.7 40.4 63 -1.7 28.9
04:40 1017 30.03 846 24.98 4.4 39.9 63 -2 28.4
04:45 1017 30.03 846 24.98 4.6 40.3 61 -2.3 27.8
04:50 1017 30.03 846 24.98 5.3 41.6 58 -2.3 27.9
04:55 1017 30.03 846 24.98 5.6 42.1 58 -1.9 28.6
05:00 1017 30.03 846 24.98 5.5 42 60 -1.6 29.2
05:05 1017 30.03 846 24.98 5.4 41.8 61 -1.5 29.3
05:10 1017 30.03 846 24.98 5.3 41.5 62 -1.4 29.4
05:15 1016 30 846 24.98 5.2 41.4 62 -1.4 29.5
05:20 1017 30.03 846 24.98 5.2 41.4 62 -1.5 29.2
05:25 1017 30.03 846 24.98 5.1 41.2 62 -1.5 29.3
05:30 1017 30.03 846 24.98 5 41.1 62 -1.5 29.2
05:35 1017 30.03 846 24.98 5.1 41.2 62 -1.6 29.1
05:40 1017 30.03 846 24.98 5.2 41.4 61 -1.7 29
05:45 1017 30.03 846 24.98 5.3 41.5 61 -1.6 29.1
05:50 1017 30.03 846 24.98 5.4 41.7 61 -1.6 29.1
05:55 1017 30.03 846 24.98 5.3 41.6 61 -1.6 29.1
06:00 1017 30.03 846 24.98 5.1 41.1 61 -1.8 28.7
06:05 1016 30 846 24.98 4.7 40.5 62 -1.9 28.5
06:10 1016 30 846 24.98 4 39.3 64 -2.1 28.2
06:15 1017 30.03 846 24.98 3.6 38.5 66 -2.2 28
06:20 1017 30.03 846 24.98 3.5 38.3 65 -2.4 27.6
06:25 1016 30 846 24.98 4.2 39.5 62 -2.4 27.6
06:30 1016 30 846 24.98 4.2 39.5 65 -1.9 28.6
06:35 1016 30 846 24.98 3.4 38.2 67 -2 28.4
06:40 1016 30 845 24.95 3.1 37.6 67 -2.4 27.7
06:45 1016 30 845 24.95 3.2 37.8 66 -2.6 27.4
06:50 1016 30 845 24.95 3.5 38.3 64 -2.7 27.2
06:55 1016 30 845 24.95 4 39.2 62 -2.6 27.3
07:00 1016 30 845 24.95 4.4 40 61 -2.3 27.8
07:05 1016 30 845 24.95 4.5 40.2 62 -2.1 28.2
07:10 1016 30 845 24.95 4.4 40 64 -1.8 28.7
07:15 1016 30 845 24.95 4.2 39.6 65 -1.8 28.7
07:20 1016 30 845 24.95 4 39.3 66 -1.7 29
07:25 1016 30 845 24.95 4 39.2 65 -1.9 28.6
07:30 1016 30 845 24.95 3.9 39.1 66 -1.9 28.6
07:35 1016 30 845 24.95 3.8 38.8 66 -2 28.4
07:40 1016 30 845 24.95 3.9 39.1 65 -2.1 28.2
07:45 1016 30 845 24.95 4.4 39.9 63 -2 28.5
07:50 1016 30 845 24.95 4.7 40.5 63 -1.6 29
07:55 1016 30 845 24.95 4.5 40.1 63 -2 28.4
08:00 1016 30 845 24.95 4.4 39.9 62 -2.2 28
08:05 1016 30 845 24.95 4.2 39.5 64 -2 28.4
08:10 1016 30 845 24.95 3.9 39 65 -2 28.4
08:15 1016 30 845 24.95 3.9 39.1 64 -2.3 27.8
08:20 1016 30 845 24.95 4.1 39.4 65 -1.9 28.6
08:25 1016 30 845 24.95 4 39.1 64 -2.2 28
08:30 1016 30 845 24.95 4.2 39.6 63 -2.2 28.1
08:35 1016 30 845 24.95 4.6 40.3 61 -2.2 28
08:40 1016 30 845 24.95 5.3 41.5 59 -2.1 28.2
08:45 1016 30 845 24.95 5.6 42.1 58 -2 28.5
08:50 1016 30 845 24.95 6.1 43.1 56 -2 28.3
08:55 1016 30 845 24.95 6.8 44.2 54 -2 28.4
09:00 1016 30 845 24.95 7.3 45.2 52 -1.9 28.6
09:05 1016 30 845 24.95 7.5 45.5 52 -1.7 29
09:10 1016 30 845 24.95 7.7 45.8 52 -1.6 29.1
09:15 1016 30 845 24.95 8.1 46.6 52 -1.1 30.1
09:20 1016 30 845 24.95 8.1 46.6 53 -0.8 30.5
09:25 1016 30 845 24.95 8 46.4 53 -0.9 30.4
09:30 1016 30 845 24.95 7.9 46.2 53 -1.1 30.1
09:35 1016 30 845 24.95 7.9 46.3 53 -0.9 30.3
09:40 1016 30 845 24.95 8.1 46.5 52 -1.1 30
09:45 1016 30 845 24.95 8.4 47.1 51 -1.2 29.9
09:50 1016 30 845 24.95 8.8 47.8 49 -1.4 29.5
09:55 1016 30 845 24.95 9.5 49.1 47 -1.2 29.9
10:00 1016 30 845 24.95 9.9 49.8 45 -1.3 29.6
10:05 1016 30 845 24.95 10.3 50.5 46 -0.9 30.4
10:10 1016 30 845 24.95 10.6 51 45 -0.9 30.3
10:15 1016 30 845 24.95 11.1 51.9 43 -0.9 30.3
10:20 1016 30 845 24.95 11.1 52.1 43 -0.8 30.5
10:25 1016 30 845 24.95 10.9 51.6 42 -1.3 29.6
10:30 1016 30 845 24.95 10.3 50.6 44 -1.3 29.7
10:35 1016 30 845 24.95 10.4 50.8 43 -1.6 29.2
10:40 1016 30 845 24.95 11.3 52.4 40 -1.6 29.2
10:45 1016 30 845 24.95 12 53.5 40 -1.1 30.1
10:50 1016 30 845 24.95 12.6 54.7 38 -1.3 29.6
10:55 1016 30 845 24.95 12.6 54.8 41 -0.2 31.6
11:00 1016 30 845 24.95 12 53.5 42 -0.6 30.9
11:05 1016 30 845 24.95 12.5 54.5 39 -1 30.2
11:10 1015 29.97 845 24.95 13.2 55.7 37 -1.2 29.9
11:15 1015 29.97 845 24.95 13.2 55.7 36 -1.4 29.4
11:20 1015 29.97 844 24.92 13.2 55.8 38 -0.7 30.8
11:25 1015 29.97 844 24.92 12.9 55.2 37 -1.4 29.4
11:30 1015 29.97 844 24.92 13.6 56.4 35 -1.5 29.3
11:35 1015 29.97 844 24.92 13.7 56.7 36 -1.1 30
11:40 1015 29.97 844 24.92 13.3 55.9 38 -0.7 30.7
11:45 1015 29.97 844 24.92 12.8 55 40 -0.6 30.9
11:50 1015 29.97 844 24.92 13.1 55.6 36 -1.6 29.2
11:55 1015 29.97 844 24.92 13.8 56.9 35 -1.4 29.4
12:00 1015 29.97 844 24.92 14.5 58 33 -1.4 29.4
12:05 1015 29.97 844 24.92 15.1 59.1 32 -1.3 29.7
12:10 1015 29.97 844 24.92 15.3 59.5 33 -0.7 30.7
12:15 1015 29.97 844 24.92 14.7 58.4 35 -0.5 31.1
12:20 1014 29.94 844 24.92 14.2 57.6 35 -1.1 30
12:25 1014 29.94 844 24.92 15 59.1 33 -0.9 30.3
12:30 1014 29.94 844 24.92 15.8 60.4 32 -0.7 30.7
12:35 1014 29.94 844 24.92 16.2 61.2 32 -0.5 31.1
12:40 1014 29.94 843 24.89 16.2 61.2 32 -0.3 31.4
12:45 1014 29.94 843 24.89 16.3 61.4 31 -0.7 30.8
12:50 1014 29.94 843 24.89 16.9 62.3 30 -0.7 30.7
12:55 1014 29.94 843 24.89 17.2 63 30 -0.2 31.6
13:00 1014 29.94 843 24.89 17 62.6 31 -0.2 31.6
13:05 1014 29.94 843 24.89 16.7 62.1 31 -0.5 31.1
13:10 1014 29.94 843 24.89 15.5 59.9 34 -0.3 31.5
13:15 1014 29.94 843 24.89 15.3 59.6 34 -0.3 31.5
13:20 1013 29.91 843 24.89 16.1 61.1 32 -0.5 31
13:25 1013 29.91 843 24.89 16.3 61.3 32 -0.1 31.8
13:30 1013 29.91 843 24.89 16.8 62.2 31 -0.2 31.6
13:35 1013 29.91 843 24.89 16.6 62 30 -1.1 30.1
13:40 1013 29.91 843 24.89 17.4 63.3 29 -0.7 30.7
13:45 1013 29.91 842 24.86 16.9 62.5 29 -0.9 30.4
13:50 1013 29.91 842 24.86 17.6 63.6 28 -0.9 30.3
13:55 1013 29.91 842 24.86 17.6 63.7 28 -0.9 30.4
14:00 1013 29.91 842 24.86 17 62.6 29 -1.1 30
14:05 1013 29.91 842 24.86 17.2 63 27 -1.9 28.6
14:10 1013 29.91 842 24.86 17.1 62.8 28 -1.4 29.6
14:15 1013 29.91 842 24.86 18 64.3 27 -1.4 29.5
14:20 1013 29.91 842 24.86 18.6 65.5 26 -1.2 29.8
14:25 1013 29.91 842 24.86 19.1 66.4 26 -0.8 30.6
14:30 1012 29.88 842 24.86 19.2 66.5 25 -1.2 29.8
14:35 1012 29.88 842 24.86 19.3 66.7 25 -1.3 29.7
14:40 1012 29.88 842 24.86 19.3 66.8 24 -1.3 29.6
14:45 1012 29.88 841 24.83 19.6 67.3 23 -1.7 28.9
14:50 1012 29.88 841 24.83 19.6 67.3 25 -1 30.2
14:55 1012 29.88 841 24.83 18 64.4 25 -2.4 27.7
15:00 1012 29.88 841 24.83 18.4 65.1 26 -1.2 29.9
15:05 1012 29.88 841 24.83 18.1 64.6 25 -2.3 27.9
15:10 1012 29.88 841 24.83 19.3 66.8 23 -2.4 27.7
15:15 1012 29.88 841 24.83 18.7 65.6 24 -2.1 28.2
15:20 1012 29.88 841 24.83 19.2 66.5 24 -1.9 28.5
15:25 1012 29.88 841 24.83 19.2 66.6 24 -1.4 29.4
15:30 1012 29.88 841 24.83 18.6 65.4 25 -1.9 28.5
15:35 1012 29.88 841 24.83 19.8 67.7 23 -1.5 29.4
15:40 1012 29.88 841 24.83 20 67.9 24 -1.1 30
15:45 1012 29.88 841 24.83 20 67.9 23 -1.4 29.4
15:50 1012 29.88 841 24.83 20.4 68.6 23 -1.5 29.3
15:55 1012 29.88 841 24.83 20.6 69.1 22 -1.7 28.9
16:00 1011 29.85 841 24.83 21.1 69.9 21 -1.7 28.9
16:05 1011 29.85 841 24.83 20.9 69.6 22 -1.2 29.9
16:10 1011 29.85 841 24.83 20.4 68.6 23 -1.3 29.7
16:15 1011 29.85 840 24.81 20.5 68.8 22 -1.8 28.7
16:20 1011 29.85 840 24.81 20.5 68.8 23 -1.1 30.1
16:25 1011 29.85 840 24.81 19.8 67.6 23 -1.6 29
16:30 1011 29.85 840 24.81 20.1 68.2 23 -1.5 29.2
16:35 1011 29.85 840 24.81 19.9 67.8 23 -1.5 29.2
16:40 1011 29.85 840 24.81 20.4 68.7 23 -1.4 29.5
16:45 1011 29.85 840 24.81 19.8 67.6 23 -1.6 29.1
16:50 1011 29.85 840 24.81 19 66.2 24 -2.1 28.1
16:55 1011 29.85 840 24.81 18.5 65.3 24 -2.6 27.4
17:00 1011 29.85 840 24.81 18.9 66.1 23 -2.4 27.7
17:05 1011 29.85 840 24.81 19 66.2 23 -2.3 27.8
17:10 1011 29.85 840 24.81 18.8 65.8 27 -0.4 31.2
17:15 1011 29.85 840 24.81 18.4 65.2 29 0.3 32.6
17:20 1011 29.85 840 24.81 18.2 64.7 30 0.3 32.5
17:25 1011 29.85 840 24.81 17.9 64.1 30 0.3 32.5
17:30 1011 29.85 840 24.81 17.8 64 31 0.4 32.7
17:35 1011 29.85 840 24.81 17.5 63.6 31 0.3 32.6
17:40 1011 29.85 840 24.81 17.3 63.1 32 0.4 32.7
17:45 1011 29.85 840 24.81 17.1 62.8 32 0.5 32.9
17:50 1011 29.85 840 24.81 17 62.5 33 0.6 33.1
17:55 1011 29.85 840 24.81 16.9 62.3 33 0.7 33.2
18:00 1011 29.85 840 24.81 16.6 61.9 34 0.7 33.3
18:05 1011 29.85 840 24.81 16.4 61.4 34 0.8 33.4
18:10 1010 29.83 840 24.81 16 60.7 35 0.8 33.4
18:15 1010 29.83 840 24.81 15.7 60.2 37 1.2 34.1
18:20 1010 29.83 840 24.81 15.4 59.6 38 1.3 34.3
18:25 1010 29.83 840 24.81 15 59.1 39 1.3 34.4
18:30 1010 29.83 840 24.81 14.8 58.6 41 1.6 34.8
18:35 1010 29.83 840 24.81 14.4 57.9 41 1.5 34.7
18:40 1010 29.83 839 24.78 14.1 57.4 42 1.3 34.4
18:45 1010 29.83 839 24.78 14 57.1 42 1.2 34.2
18:50 1010 29.83 839 24.78 13.9 56.9 42 1.3 34.3
18:55 1010 29.83 839 24.78 13.7 56.7 43 1.4 34.5
19:00 1010 29.83 839 24.78 13.6 56.5 43 1.4 34.5
19:05 1010 29.83 839 24.78 13.6 56.4 43 1.4 34.6
19:10 1010 29.83 839 24.78 13.4 56.1 44 1.5 34.8
19:15 1010 29.83 839 24.78 13.3 55.9 45 1.8 35.2
19:20 1010 29.83 839 24.78 13.1 55.6 46 1.9 35.4
19:25 1010 29.83 839 24.78 12.9 55.3 47 2.1 35.7
19:30 1010 29.83 839 24.78 12.8 55 49 2.3 36.1
19:35 1010 29.83 839 24.78 12.6 54.7 50 2.6 36.7
19:40 1010 29.83 839 24.78 12.5 54.4 51 2.8 37
19:45 1010 29.83 839 24.78 12.4 54.3 52 3 37.4
19:50 1010 29.83 839 24.78 12.2 54 53 3.1 37.5
19:55 1010 29.83 839 24.78 12.1 53.8 54 3.2 37.7
20:00 1010 29.83 839 24.78 12.1 53.7 54 3.2 37.8
20:05 1010 29.83 839 24.78 11.9 53.5 55 3.1 37.6
20:10 1010 29.83 839 24.78 11.8 53.3 55 3 37.5
20:15 1010 29.83 839 24.78 11.8 53.3 54 2.9 37.3
20:20 1010 29.83 839 24.78 11.8 53.2 54 2.9 37.3
20:25 1010 29.83 839 24.78 11.8 53.2 54 2.9 37.2
20:30 1010 29.83 839 24.78 11.7 53 55 2.9 37.2
20:35 1010 29.83 839 24.78 11.6 52.9 55 2.8 37.1
20:40 1010 29.83 839 24.78 11.6 52.8 55 2.8 37.1
20:45 1010 29.83 839 24.78 11.5 52.7 55 2.9 37.1
20:50 1010 29.83 839 24.78 11.4 52.5 55 2.8 37
20:55 1010 29.83 839 24.78 11.3 52.4 56 2.8 37.1
21:00 1010 29.83 839 24.78 11.3 52.3 56 2.8 37.1
21:05 1010 29.83 839 24.78 11.2 52.2 56 2.8 37.1
21:10 1010 29.83 839 24.78 11.2 52.1 56 2.9 37.2
21:15 1010 29.83 839 24.78 11.1 52 57 3 37.3
21:20 1010 29.83 839 24.78 11 51.7 58 3 37.4
21:25 1010 29.83 839 24.78 10.8 51.5 58 3 37.5
21:30 1010 29.83 839 24.78 10.8 51.4 59 3 37.5
21:35 1010 29.83 839 24.78 10.7 51.2 59 3.1 37.5
21:40 1010 29.83 839 24.78 10.6 51 59 3 37.4
21:45 1010 29.83 839 24.78 10.5 51 59 2.9 37.3
21:50 1010 29.83 839 24.78 10.5 50.9 59 2.8 37.1
21:55 1010 29.83 839 24.78 10.4 50.8 59 2.8 37
22:00 1010 29.83 839 24.78 10.4 50.7 58 2.6 36.6
22:05 1010 29.83 839 24.78 10.4 50.8 58 2.5 36.5
22:10 1010 29.83 839 24.78 10.5 50.8 58 2.5 36.5
22:15 1010 29.83 839 24.78 10.4 50.7 57 2.4 36.2
22:20 1010 29.83 839 24.78 10.3 50.6 57 2.3 36.2
22:25 1010 29.83 839 24.78 10.3 50.5 57 2.2 36
22:30 1010 29.83 839 24.78 10.2 50.4 57 2.1 35.8
22:35 1010 29.83 839 24.78 10.3 50.5 56 2 35.6
22:40 1010 29.83 839 24.78 10.3 50.5 56 2 35.6
22:45 1010 29.83 839 24.78 10.3 50.5 56 1.9 35.4
22:50 1010 29.83 839 24.78 10.2 50.4 56 1.9 35.4
22:55 1010 29.83 839 24.78 10.1 50.2 56 1.9 35.3
23:00 1010 29.83 839 24.78 10.1 50.1 56 1.8 35.2
23:05 1010 29.83 839 24.78 10 50 56 1.7 35
23:10 1010 29.83 839 24.78 10 50 56 1.6 35
23:15 1010 29.83 839 24.78 10 49.9 56 1.6 34.8
23:20 1010 29.83 839 24.78 9.9 49.9 56 1.5 34.8
23:25 1010 29.83 839 24.78 9.9 49.7 56 1.5 34.7
23:30 1010 29.83 839 24.78 9.7 49.5 56 1.4 34.6
23:35 1010 29.83 839 24.78 9.6 49.3 56 1.3 34.3
23:40 1010 29.83 839 24.78 9.6 49.2 56 1.2 34.1
23:45 1010 29.83 839 24.78 9.5 49.1 56 1.1 34
23:50 1010 29.83 839 24.78 9.5 49.1 56 1.1 33.9
23:55 1010 29.83 839 24.78 9.4 49 56 1.1 33.9
24:00 1010 29.83 839 24.78 9.3 48.8 56 1 33.7